Time;durP1;ratioP1;P1;durP2;ratioP2;P2;SDS_P1;SDS_P2;PMS_P1;PMS_P2;Temp;Humidity;BMP_temperature;BMP_pressure;BME280_temperature;BME280_humidity;BME280_pressure;Samples;Min_cycle;Max_cycle;Signal;HPM_P1;HPM_P2
2023/09/30 00:00:17;;;;;;;5.33;3.67;;;20.40;99.90;;;;;;5019996;28;20521;-76
2023/09/30 00:02:43;;;;;;;6.67;3.47;;;20.40;99.90;;;;;;5021295;28;20292;-75
2023/09/30 00:05:09;;;;;;;5.23;3.20;;;20.40;99.90;;;;;;5014863;28;20214;-76
2023/09/30 00:07:36;;;;;;;4.93;3.57;;;20.20;99.90;;;;;;5026698;28;20431;-77
2023/09/30 00:10:03;;;;;;;4.37;3.07;;;20.20;99.90;;;;;;5020568;28;20454;-76
2023/09/30 00:12:28;;;;;;;3.13;2.70;;;20.30;99.90;;;;;;5021079;28;20880;-77
2023/09/30 00:14:54;;;;;;;4.73;2.97;;;20.40;99.90;;;;;;5023266;28;20450;-79
2023/09/30 00:17:20;;;;;;;4.90;3.23;;;20.50;99.90;;;;;;5021029;28;20192;-77
2023/09/30 00:19:45;;;;;;;5.70;3.07;;;20.50;99.90;;;;;;5024173;28;20245;-77
2023/09/30 00:22:11;;;;;;;6.23;3.30;;;20.50;99.90;;;;;;5004051;28;21296;-76
2023/09/30 00:24:37;;;;;;;3.53;2.67;;;20.50;99.90;;;;;;5020375;28;20201;-76
2023/09/30 00:27:02;;;;;;;4.83;3.27;;;20.50;99.90;;;;;;5020513;28;20192;-77
2023/09/30 00:29:28;;;;;;;6.10;3.07;;;20.60;99.90;;;;;;5019595;28;20860;-76
2023/09/30 00:31:53;;;;;;;3.53;2.70;;;20.60;99.90;;;;;;5006761;28;20180;-77
2023/09/30 00:34:19;;;;;;;4.20;3.03;;;20.50;99.90;;;;;;5038461;28;20204;-76
2023/09/30 00:36:45;;;;;;;4.60;2.93;;;20.50;99.90;;;;;;5023929;28;20258;-77
2023/09/30 00:39:10;;;;;;;4.20;2.83;;;20.50;99.90;;;;;;5004048;28;20180;-76
2023/09/30 00:41:39;;;;;;;6.70;3.13;;;20.50;99.90;;;;;;5027937;28;20188;-77
2023/09/30 00:44:05;;;;;;;5.97;3.50;;;20.50;99.90;;;;;;5023302;28;20208;-77
2023/09/30 00:46:32;;;;;;;5.37;3.13;;;20.50;99.90;;;;;;5021647;28;20450;-78
2023/09/30 00:48:59;;;;;;;7.30;3.27;;;20.60;99.90;;;;;;5027405;28;20223;-78
2023/09/30 00:51:28;;;;;;;5.10;3.60;;;20.50;99.90;;;;;;5023314;28;20801;-78
2023/09/30 00:53:56;;;;;;;5.43;3.17;;;20.60;99.90;;;;;;5021829;28;20448;-78
2023/09/30 00:56:25;;;;;;;6.47;3.40;;;20.60;99.90;;;;;;5021737;28;20449;-77
2023/09/30 00:58:51;;;;;;;4.80;2.97;;;20.50;99.90;;;;;;5024434;28;20504;-77
2023/09/30 01:01:19;;;;;;;4.50;2.97;;;20.50;99.90;;;;;;5031251;28;20428;-78
2023/09/30 01:03:46;;;;;;;5.00;3.00;;;20.50;99.90;;;;;;5024142;28;20573;-79
2023/09/30 01:06:12;;;;;;;5.83;3.50;;;20.40;99.90;;;;;;5022705;28;20446;-78
2023/09/30 01:08:38;;;;;;;5.43;3.87;;;20.40;99.90;;;;;;5020932;28;20969;-78
2023/09/30 01:11:04;;;;;;;5.80;3.20;;;20.40;99.90;;;;;;5024426;28;20169;-78
2023/09/30 01:13:37;;;;;;;4.70;3.33;;;20.40;99.90;;;;;;5025419;28;20506;-78
2023/09/30 01:16:09;;;;;;;4.23;3.13;;;20.40;99.90;;;;;;5020747;28;20485;-78
2023/09/30 01:18:36;;;;;;;4.33;3.40;;;20.30;99.90;;;;;;5018990;28;20408;-78
2023/09/30 01:21:04;;;;;;;5.57;3.40;;;20.30;99.90;;;;;;5023984;28;20426;-78
2023/09/30 01:23:31;;;;;;;4.30;3.30;;;20.30;99.90;;;;;;5012784;28;20431;-77
2023/09/30 01:25:57;;;;;;;5.00;3.30;;;20.30;99.90;;;;;;5017667;28;20467;-78
2023/09/30 01:28:23;;;;;;;5.00;3.23;;;20.30;99.90;;;;;;5020741;28;20525;-78
2023/09/30 01:30:48;;;;;;;5.87;4.43;;;20.30;99.90;;;;;;5018026;28;20188;-78
2023/09/30 01:33:16;;;;;;;8.57;3.90;;;20.30;99.90;;;;;;5015087;28;20448;-77
2023/09/30 01:35:42;;;;;;;6.00;3.70;;;20.30;99.90;;;;;;5032125;28;20265;-77
2023/09/30 01:38:07;;;;;;;6.57;3.43;;;20.30;99.90;;;;;;5017475;28;20443;-77
2023/09/30 01:40:37;;;;;;;6.43;3.40;;;20.30;99.90;;;;;;5021740;28;20180;-78
2023/09/30 01:43:03;;;;;;;5.43;3.50;;;20.30;99.90;;;;;;5035175;28;20190;-78
2023/09/30 01:45:28;;;;;;;7.23;3.80;;;20.30;99.90;;;;;;5016440;28;20462;-77
2023/09/30 01:47:54;;;;;;;5.27;3.87;;;20.30;99.90;;;;;;5019265;28;20463;-78
2023/09/30 01:50:20;;;;;;;5.80;3.30;;;20.30;99.90;;;;;;5018714;28;20187;-78
2023/09/30 01:52:45;;;;;;;4.20;3.37;;;20.30;99.90;;;;;;5019460;28;20199;-77
2023/09/30 01:55:11;;;;;;;5.77;3.27;;;20.20;99.90;;;;;;5017919;28;20207;-77
2023/09/30 01:57:40;;;;;;;5.47;3.67;;;20.30;99.90;;;;;;5005204;28;20227;-78
2023/09/30 02:00:09;;;;;;;7.70;4.00;;;20.30;99.90;;;;;;5015801;28;20467;-77
2023/09/30 02:02:36;;;;;;;4.67;3.47;;;20.30;99.90;;;;;;5016793;28;20562;-77
2023/09/30 02:05:02;;;;;;;5.97;4.07;;;20.20;99.90;;;;;;5002303;28;20443;-76
2023/09/30 02:07:29;;;;;;;4.37;3.40;;;20.20;99.90;;;;;;5002093;28;20438;-77
2023/09/30 02:09:54;;;;;;;5.40;3.80;;;20.20;99.90;;;;;;5019618;28;20461;-76
2023/09/30 02:12:20;;;;;;;7.20;3.50;;;20.10;99.90;;;;;;5020417;28;20451;-76
2023/09/30 02:14:46;;;;;;;4.90;3.10;;;20.20;99.90;;;;;;5017232;28;20204;-76
2023/09/30 02:17:13;;;;;;;6.17;3.40;;;20.10;99.90;;;;;;5034502;28;20235;-78
2023/09/30 02:19:40;;;;;;;5.57;3.03;;;20.10;99.90;;;;;;5018327;28;20473;-77
2023/09/30 02:22:08;;;;;;;4.80;2.80;;;20.10;99.90;;;;;;5019357;28;20419;-78
2023/09/30 02:24:34;;;;;;;4.47;3.23;;;20.10;99.90;;;;;;5010764;28;20459;-79
2023/09/30 02:27:00;;;;;;;5.03;3.20;;;20.20;99.90;;;;;;5003170;28;20443;-77
2023/09/30 02:29:25;;;;;;;5.53;4.00;;;20.20;99.90;;;;;;5018205;28;20212;-78
2023/09/30 02:31:51;;;;;;;4.47;3.30;;;20.20;99.90;;;;;;5019042;28;20185;-78
2023/09/30 02:34:17;;;;;;;4.80;3.30;;;20.20;99.90;;;;;;5019087;28;20205;-78
2023/09/30 02:36:43;;;;;;;4.57;3.73;;;20.20;99.90;;;;;;5016101;28;21219;-78
2023/09/30 02:39:09;;;;;;;6.13;3.33;;;20.20;99.90;;;;;;5021015;28;20435;-76
2023/09/30 02:41:35;;;;;;;4.97;3.70;;;20.20;99.90;;;;;;5017055;28;20423;-77
2023/09/30 02:44:01;;;;;;;5.77;3.77;;;20.10;99.90;;;;;;5030130;28;20208;-77
2023/09/30 02:46:30;;;;;;;6.83;3.97;;;20.10;99.90;;;;;;5015805;28;20468;-77
2023/09/30 02:48:55;;;;;;;4.30;3.20;;;20.10;99.90;;;;;;5021203;28;20638;-76
2023/09/30 02:51:21;;;;;;;4.53;3.03;;;20.10;99.90;;;;;;5017590;28;20435;-77
2023/09/30 02:53:48;;;;;;;6.07;3.17;;;20.10;99.90;;;;;;5015146;28;20695;-76
2023/09/30 02:56:14;;;;;;;4.77;3.10;;;20.10;99.90;;;;;;5015642;28;20222;-77
2023/09/30 02:58:40;;;;;;;5.37;3.30;;;20.10;99.90;;;;;;5017434;28;20459;-77
2023/09/30 03:01:06;;;;;;;5.60;3.57;;;20.00;99.90;;;;;;5019766;28;20438;-77
2023/09/30 03:03:33;;;;;;;4.97;3.57;;;20.10;99.90;;;;;;5031827;28;20434;-78
2023/09/30 03:06:00;;;;;;;5.60;3.57;;;20.10;99.90;;;;;;5023151;28;20816;-78
2023/09/30 03:08:26;;;;;;;4.80;3.50;;;20.10;99.90;;;;;;5020018;28;20475;-77
2023/09/30 03:10:52;;;;;;;6.17;3.93;;;20.10;99.90;;;;;;5021836;28;20522;-78
2023/09/30 03:13:18;;;;;;;6.23;4.63;;;20.10;99.90;;;;;;5016544;28;20212;-77
2023/09/30 03:15:44;;;;;;;6.13;3.80;;;20.10;99.90;;;;;;5020528;28;20909;-77
2023/09/30 03:18:11;;;;;;;7.43;3.60;;;20.10;99.90;;;;;;4998548;28;20982;-77
2023/09/30 03:20:40;;;;;;;7.30;3.50;;;20.10;99.90;;;;;;5016043;28;20474;-77
2023/09/30 03:23:06;;;;;;;4.80;3.17;;;20.10;99.90;;;;;;5008496;28;20439;-77
2023/09/30 03:25:32;;;;;;;5.40;3.37;;;20.10;99.90;;;;;;5020702;28;20451;-77
2023/09/30 03:27:58;;;;;;;4.83;3.93;;;20.10;99.90;;;;;;5017574;28;20215;-77
2023/09/30 03:30:24;;;;;;;5.10;3.60;;;20.10;99.90;;;;;;5016060;28;20930;-77
2023/09/30 03:32:50;;;;;;;6.63;3.70;;;20.10;99.90;;;;;;5003370;28;20203;-79
2023/09/30 03:35:18;;;;;;;4.40;3.77;;;20.10;99.90;;;;;;5007452;28;20431;-79
2023/09/30 03:37:47;;;;;;;6.03;3.80;;;20.00;99.90;;;;;;5016175;28;20236;-78
2023/09/30 03:40:14;;;;;;;5.93;3.43;;;20.00;99.90;;;;;;5029321;28;20511;-78
2023/09/30 03:42:42;;;;;;;6.30;3.60;;;20.00;99.90;;;;;;5015812;28;20420;-78
2023/09/30 03:45:08;;;;;;;6.37;3.70;;;20.00;99.90;;;;;;5004283;28;20467;-79
2023/09/30 03:47:40;;;;;;;4.93;3.70;;;20.00;99.90;;;;;;5017641;28;20431;-79
2023/09/30 03:50:13;;;;;;;5.77;4.00;;;19.90;99.90;;;;;;5015794;28;20188;-79
2023/09/30 03:52:39;;;;;;;4.80;3.33;;;19.90;99.90;;;;;;5020140;28;20419;-79
2023/09/30 03:55:05;;;;;;;6.80;3.80;;;19.90;99.90;;;;;;5012538;28;20454;-78
2023/09/30 03:57:33;;;;;;;4.77;3.53;;;19.90;99.90;;;;;;5016292;28;20291;-77
2023/09/30 04:00:00;;;;;;;7.63;4.10;;;19.90;99.90;;;;;;5001609;28;20445;-77
2023/09/30 04:02:26;;;;;;;10.80;4.43;;;19.80;99.90;;;;;;5023496;28;20530;-77
2023/09/30 04:04:53;;;;;;;5.57;4.10;;;19.80;99.90;;;;;;5014624;28;20961;-76
2023/09/30 04:07:20;;;;;;;6.40;4.03;;;19.80;99.90;;;;;;5019954;28;20539;-76
2023/09/30 04:09:46;;;;;;;6.50;4.60;;;19.80;99.90;;;;;;4987577;28;20470;-77
2023/09/30 04:12:11;;;;;;;5.33;3.97;;;19.80;99.90;;;;;;5018775;28;20431;-77
2023/09/30 04:14:37;;;;;;;8.60;4.07;;;19.80;99.90;;;;;;5013482;28;20458;-77
2023/09/30 04:17:04;;;;;;;8.77;4.73;;;19.80;99.90;;;;;;4999617;28;20173;-77
2023/09/30 04:19:30;;;;;;;8.10;4.93;;;19.80;99.90;;;;;;5017917;28;20342;-77
2023/09/30 04:21:56;;;;;;;7.27;5.00;;;19.80;99.90;;;;;;5023974;28;21048;-77
2023/09/30 04:24:22;;;;;;;5.40;4.17;;;19.80;99.90;;;;;;5019461;28;20446;-77
2023/09/30 04:26:50;;;;;;;6.00;5.07;;;19.80;99.90;;;;;;5014174;28;20430;-76
2023/09/30 04:29:16;;;;;;;7.27;4.50;;;19.70;99.90;;;;;;5029169;28;21030;-77
2023/09/30 04:31:41;;;;;;;7.00;4.23;;;19.70;99.90;;;;;;5021166;28;20427;-76
2023/09/30 04:34:07;;;;;;;8.50;4.93;;;19.70;99.90;;;;;;5021129;28;20266;-76
2023/09/30 04:36:35;;;;;;;6.27;5.07;;;19.70;99.90;;;;;;5034552;28;20176;-76
2023/09/30 04:39:02;;;;;;;11.43;5.97;;;19.70;99.90;;;;;;5024668;28;20655;-77
2023/09/30 04:41:28;;;;;;;9.93;5.30;;;19.70;99.90;;;;;;5024624;28;20458;-77
2023/09/30 04:43:54;;;;;;;8.27;6.23;;;19.70;99.90;;;;;;5018337;28;20557;-77
2023/09/30 04:46:23;;;;;;;5.87;4.53;;;19.70;99.90;;;;;;5026697;28;20207;-77
2023/09/30 04:48:51;;;;;;;6.80;4.30;;;19.60;99.90;;;;;;5023045;28;20244;-78
2023/09/30 04:51:18;;;;;;;7.83;4.90;;;19.60;99.90;;;;;;5027026;28;20416;-76
2023/09/30 04:53:47;;;;;;;6.87;5.30;;;19.60;99.90;;;;;;5021338;28;20824;-77
2023/09/30 04:56:13;;;;;;;8.27;5.40;;;19.60;99.90;;;;;;5022774;28;20554;-77
2023/09/30 04:58:39;;;;;;;9.13;6.00;;;19.50;99.90;;;;;;5023026;28;20462;-77
2023/09/30 05:01:05;;;;;;;8.13;5.13;;;19.50;99.90;;;;;;5030225;28;20717;-79
2023/09/30 05:03:31;;;;;;;7.63;5.27;;;19.50;99.90;;;;;;5006749;28;20253;-78
2023/09/30 05:05:58;;;;;;;8.27;5.43;;;19.40;99.90;;;;;;5026938;28;20466;-79
2023/09/30 05:08:24;;;;;;;6.83;5.00;;;19.40;99.90;;;;;;5020694;28;20210;-77
2023/09/30 05:10:50;;;;;;;11.40;5.30;;;19.40;99.90;;;;;;5026433;28;20412;-79
2023/09/30 05:13:15;;;;;;;7.27;5.60;;;19.30;99.90;;;;;;5021784;28;20431;-78
2023/09/30 05:15:41;;;;;;;8.57;5.80;;;19.30;99.90;;;;;;5036317;28;20200;-77
2023/09/30 05:18:09;;;;;;;9.00;5.40;;;19.30;99.90;;;;;;5018759;28;20749;-77
2023/09/30 05:20:36;;;;;;;11.37;5.60;;;19.30;99.90;;;;;;5001499;28;20443;-77
2023/09/30 05:23:02;;;;;;;7.60;4.80;;;19.20;99.90;;;;;;5030994;28;20435;-77
2023/09/30 05:25:28;;;;;;;8.43;5.47;;;19.10;99.90;;;;;;5023290;28;20451;-78
2023/09/30 05:27:54;;;;;;;8.07;5.43;;;19.10;99.90;;;;;;5002369;28;20543;-77
2023/09/30 05:30:20;;;;;;;9.40;6.00;;;19.10;99.90;;;;;;5020567;28;20188;-78
2023/09/30 05:32:46;;;;;;;10.17;5.50;;;19.00;99.90;;;;;;4993451;28;20235;-77
2023/09/30 05:35:12;;;;;;;7.93;6.40;;;19.00;99.90;;;;;;5017772;28;20204;-78
2023/09/30 05:37:42;;;;;;;7.70;5.83;;;19.00;99.90;;;;;;5017413;28;20463;-77
2023/09/30 05:40:21;;;;;;;8.50;6.13;;;19.00;99.90;;;;;;5016700;28;20493;-77
2023/09/30 05:43:00;;;;;;;12.63;5.93;;;18.90;99.90;;;;;;5019406;28;20435;-77
2023/09/30 05:45:31;;;;;;;7.43;5.40;;;19.00;99.90;;;;;;5024027;28;20443;-77
2023/09/30 05:47:59;;;;;;;8.17;5.00;;;18.90;99.90;;;;;;5021337;28;20549;-77
2023/09/30 05:50:26;;;;;;;6.10;5.50;;;18.90;99.90;;;;;;5016555;28;20432;-76
2023/09/30 05:52:52;;;;;;;8.00;5.43;;;18.90;99.90;;;;;;5029607;28;20423;-76
2023/09/30 05:55:22;;;;;;;9.10;6.30;;;18.90;99.90;;;;;;5000458;28;20462;-77
2023/09/30 05:57:52;;;;;;;9.33;5.70;;;18.90;99.90;;;;;;5028117;28;20435;-79
2023/09/30 06:00:21;;;;;;;9.30;6.20;;;18.90;99.90;;;;;;5019124;28;20442;-77
2023/09/30 06:02:48;;;;;;;8.13;5.87;;;18.90;99.90;;;;;;5029507;28;20419;-76
2023/09/30 06:05:18;;;;;;;6.07;5.17;;;18.90;99.90;;;;;;5019460;28;20439;-77
2023/09/30 06:07:45;;;;;;;8.40;5.30;;;18.90;99.90;;;;;;4998925;28;20521;-76
2023/09/30 06:10:11;;;;;;;9.10;6.10;;;18.90;99.90;;;;;;5018392;28;20422;-78
2023/09/30 06:12:37;;;;;;;12.17;6.40;;;18.90;99.90;;;;;;5025761;28;20427;-78
2023/09/30 06:15:03;;;;;;;9.57;5.97;;;18.90;99.90;;;;;;5018361;28;20534;-77
2023/09/30 06:17:28;;;;;;;8.67;5.83;;;18.90;99.90;;;;;;5018248;28;20199;-77
2023/09/30 06:19:54;;;;;;;10.20;5.97;;;18.90;99.90;;;;;;5015487;28;20531;-77
2023/09/30 06:22:21;;;;;;;7.33;5.10;;;18.90;99.90;;;;;;5017126;28;20194;-76
2023/09/30 06:24:48;;;;;;;9.43;6.07;;;19.00;99.90;;;;;;5020584;28;20476;-76
2023/09/30 06:27:13;;;;;;;6.13;4.87;;;19.00;99.90;;;;;;5021035;28;20419;-76
2023/09/30 06:29:40;;;;;;;8.83;6.20;;;19.00;99.90;;;;;;5016796;28;20540;-76
2023/09/30 06:32:07;;;;;;;8.70;6.00;;;19.00;99.90;;;;;;5017831;28;20529;-77
2023/09/30 06:34:34;;;;;;;7.50;5.87;;;19.10;99.90;;;;;;5015826;28;20970;-76
2023/09/30 06:37:00;;;;;;;6.50;5.80;;;19.10;99.90;;;;;;5016842;28;20944;-74
2023/09/30 06:39:25;;;;;;;8.90;5.53;;;19.20;99.90;;;;;;5018677;28;20453;-75
2023/09/30 06:41:51;;;;;;;8.70;6.13;;;19.20;99.90;;;;;;5018127;28;20563;-75
2023/09/30 06:44:17;;;;;;;11.20;5.87;;;19.20;99.90;;;;;;4996278;28;20287;-74
2023/09/30 06:46:43;;;;;;;9.10;5.63;;;19.20;99.90;;;;;;5017914;28;20513;-74
2023/09/30 06:49:10;;;;;;;9.23;5.80;;;19.20;99.90;;;;;;5017035;28;20485;-74
2023/09/30 06:51:36;;;;;;;9.17;5.87;;;19.20;99.90;;;;;;5019531;28;20431;-73
2023/09/30 06:54:06;;;;;;;8.93;6.70;;;19.20;99.90;;;;;;5018407;28;20529;-75
2023/09/30 06:56:32;;;;;;;7.90;6.40;;;19.20;99.90;;;;;;5021889;28;20177;-72
2023/09/30 06:58:57;;;;;;;8.33;6.90;;;19.20;99.90;;;;;;5016975;28;20431;-73
2023/09/30 07:01:23;;;;;;;10.50;8.03;;;19.20;99.90;;;;;;5021340;28;20195;-73
2023/09/30 07:03:49;;;;;;;8.30;7.37;;;19.20;99.90;;;;;;5017577;28;20528;-74
2023/09/30 07:06:22;;;;;;;8.93;6.60;;;19.10;99.90;;;;;;5023224;28;20501;-73
2023/09/30 07:08:48;;;;;;;8.53;6.60;;;19.10;99.90;;;;;;4999902;28;20215;-74
2023/09/30 07:11:14;;;;;;;12.60;6.67;;;19.20;99.90;;;;;;5013138;28;20530;-74
2023/09/30 07:13:40;;;;;;;10.47;7.60;;;19.20;99.90;;;;;;5017690;28;20524;-74
2023/09/30 07:16:05;;;;;;;9.03;6.53;;;19.20;99.90;;;;;;5017556;28;20181;-74
2023/09/30 07:18:31;;;;;;;13.63;7.60;;;19.20;99.90;;;;;;5013447;28;20188;-74
2023/09/30 07:20:57;;;;;;;11.20;7.73;;;19.20;99.90;;;;;;4983096;28;20777;-74
2023/09/30 07:23:22;;;;;;;9.17;7.37;;;19.20;99.90;;;;;;5014979;28;20454;-73
2023/09/30 07:25:48;;;;;;;10.63;7.77;;;19.20;99.90;;;;;;5016663;28;20734;-73
2023/09/30 07:28:14;;;;;;;9.80;7.70;;;19.20;99.90;;;;;;5016796;28;20219;-73
2023/09/30 07:30:40;;;;;;;12.20;7.47;;;19.20;99.90;;;;;;5017237;28;20275;-73
2023/09/30 07:33:06;;;;;;;10.13;6.87;;;19.20;99.90;;;;;;5014078;28;20250;-73
2023/09/30 07:35:32;;;;;;;10.40;7.60;;;19.20;99.90;;;;;;5019046;28;20838;-74
2023/09/30 07:37:58;;;;;;;13.10;7.90;;;19.30;99.90;;;;;;4998671;28;21198;-73
2023/09/30 07:40:23;;;;;;;11.00;7.63;;;19.30;99.90;;;;;;5013253;28;20477;-74
2023/09/30 07:42:50;;;;;;;12.97;8.40;;;19.30;99.90;;;;;;5018901;28;20192;-74
2023/09/30 07:45:16;;;;;;;9.27;7.13;;;19.30;99.90;;;;;;5018292;28;20196;-74
2023/09/30 07:47:46;;;;;;;11.50;7.90;;;19.40;99.90;;;;;;5016070;28;20461;-74
2023/09/30 07:50:12;;;;;;;9.07;6.40;;;19.40;99.90;;;;;;5018413;28;20871;-74
2023/09/30 07:52:39;;;;;;;11.07;8.17;;;19.40;99.90;;;;;;5014482;28;20910;-73
2023/09/30 07:55:05;;;;;;;10.20;8.00;;;19.40;99.90;;;;;;5015914;28;20907;-73
2023/09/30 07:57:31;;;;;;;11.30;7.50;;;19.40;99.90;;;;;;5018514;28;20526;-73
2023/09/30 07:59:56;;;;;;;17.10;8.00;;;19.50;99.90;;;;;;5003340;28;20219;-72
2023/09/30 08:02:24;;;;;;;17.67;7.40;;;19.50;99.90;;;;;;5018874;28;20192;-75
2023/09/30 08:04:49;;;;;;;12.40;7.10;;;19.50;99.90;;;;;;5022147;28;20267;-74
2023/09/30 08:07:15;;;;;;;10.40;8.40;;;19.60;99.90;;;;;;5018501;28;20434;-72
2023/09/30 08:09:41;;;;;;;8.30;7.40;;;19.60;99.90;;;;;;5021313;28;20210;-73
2023/09/30 08:12:07;;;;;;;11.33;8.37;;;19.70;99.90;;;;;;5024628;28;20632;-73
2023/09/30 08:14:32;;;;;;;11.67;8.20;;;19.70;99.90;;;;;;5023247;28;20480;-73
2023/09/30 08:16:58;;;;;;;12.13;7.93;;;19.70;99.90;;;;;;5025490;28;20187;-75
2023/09/30 08:19:23;;;;;;;11.20;8.40;;;19.80;99.90;;;;;;5026426;28;20783;-72
2023/09/30 08:21:49;;;;;;;11.57;9.17;;;19.80;99.90;;;;;;5030887;28;20189;-72
2023/09/30 08:24:14;;;;;;;11.80;8.67;;;19.80;99.90;;;;;;5017191;28;23128;-72
2023/09/30 08:26:41;;;;;;;12.07;9.10;;;19.80;99.90;;;;;;5002745;28;20227;-72
2023/09/30 08:29:06;;;;;;;12.47;8.57;;;19.80;99.90;;;;;;5022394;28;20583;-73
2023/09/30 08:31:32;;;;;;;13.00;9.70;;;19.80;99.90;;;;;;5021374;28;20424;-74
2023/09/30 08:33:58;;;;;;;9.17;7.90;;;19.90;99.90;;;;;;5031914;28;20369;-73
2023/09/30 08:36:24;;;;;;;16.67;9.40;;;19.90;99.90;;;;;;5017826;28;20513;-73
2023/09/30 08:38:50;;;;;;;13.43;8.90;;;20.00;99.90;;;;;;5003854;28;20188;-73
2023/09/30 08:41:33;;;;;;;11.73;8.00;;;20.00;99.90;;;;;;5030546;28;20430;-72
2023/09/30 08:44:01;;;;;;;11.53;8.53;;;20.10;99.90;;;;;;5024253;28;20204;-73
2023/09/30 08:46:32;;;;;;;10.70;7.63;;;20.10;99.90;;;;;;5030154;28;20500;-74
2023/09/30 08:49:00;;;;;;;11.23;7.57;;;20.10;99.90;;;;;;5020122;28;21326;-72
2023/09/30 08:51:26;;;;;;;10.90;8.30;;;20.20;99.90;;;;;;5007595;28;20565;-73
2023/09/30 08:53:53;;;;;;;10.07;8.80;;;20.20;99.90;;;;;;5016324;28;21423;-72
2023/09/30 08:56:24;;;;;;;13.33;8.50;;;20.20;99.90;;;;;;5018209;28;20439;-71
2023/09/30 08:58:50;;;;;;;12.03;7.03;;;20.30;99.90;;;;;;5016009;28;20423;-72
2023/09/30 09:01:16;;;;;;;12.20;6.60;;;20.30;99.90;;;;;;5015634;28;20477;-73
2023/09/30 09:03:42;;;;;;;10.57;7.83;;;20.40;99.90;;;;;;5020038;28;20466;-73
2023/09/30 09:06:07;;;;;;;10.13;6.40;;;20.40;99.90;;;;;;5018357;28;20441;-73
2023/09/30 09:08:33;;;;;;;12.70;7.83;;;20.50;99.90;;;;;;5004224;28;20211;-73
2023/09/30 09:11:00;;;;;;;10.23;6.40;;;20.50;99.90;;;;;;5000208;28;20267;-73
2023/09/30 09:13:26;;;;;;;8.77;6.20;;;20.60;99.90;;;;;;5018412;28;20180;-72
2023/09/30 09:16:10;;;;;;;13.73;6.93;;;20.60;99.90;;;;;;5020856;28;20458;-73
2023/09/30 09:18:37;;;;;;;9.50;6.47;;;20.70;99.90;;;;;;5018754;28;20438;-73
2023/09/30 09:21:12;;;;;;;10.13;7.03;;;20.70;99.90;;;;;;5017045;28;20481;-72
2023/09/30 09:23:42;;;;;;;11.33;6.43;;;20.80;99.90;;;;;;5016040;28;20427;-72
2023/09/30 09:26:10;;;;;;;11.20;6.60;;;20.90;99.90;;;;;;5029706;28;20425;-72
2023/09/30 09:28:39;;;;;;;13.47;7.10;;;20.90;99.90;;;;;;5006093;28;20475;-72
2023/09/30 09:31:34;;;;;;;17.30;7.13;;;21.00;99.90;;;;;;5003955;28;21090;-72
2023/09/30 09:34:00;;;;;;;12.13;6.13;;;21.10;99.90;;;;;;5015235;28;20476;-71
2023/09/30 09:36:41;;;;;;;8.40;5.90;;;21.10;99.90;;;;;;5000041;28;20419;-72
2023/09/30 09:39:07;;;;;;;9.50;5.77;;;21.20;99.90;;;;;;5016120;28;20965;-71
2023/09/30 09:41:32;;;;;;;9.90;5.90;;;21.20;99.90;;;;;;5015701;28;20430;-71
2023/09/30 09:43:59;;;;;;;12.93;6.00;;;21.30;99.90;;;;;;5015757;28;20447;-71
2023/09/30 09:46:27;;;;;;;7.93;5.50;;;21.40;99.90;;;;;;5007195;28;20694;-72
2023/09/30 09:48:54;;;;;;;10.07;6.50;;;21.50;99.90;;;;;;5020667;28;20593;-73
2023/09/30 09:51:21;;;;;;;9.37;5.77;;;21.60;99.90;;;;;;5004817;28;20431;-72
2023/09/30 09:53:48;;;;;;;8.90;5.83;;;21.60;99.90;;;;;;5002291;28;20443;-72
2023/09/30 09:56:16;;;;;;;8.47;5.50;;;21.70;99.90;;;;;;5006969;28;20427;-73
2023/09/30 09:58:43;;;;;;;8.50;5.50;;;21.80;99.90;;;;;;5017344;28;20470;-72
2023/09/30 10:01:10;;;;;;;8.70;5.03;;;22.00;99.90;;;;;;5021942;28;20427;-73
2023/09/30 10:03:38;;;;;;;7.80;4.97;;;22.20;99.90;;;;;;5016245;28;20428;-72
2023/09/30 10:06:04;;;;;;;6.00;5.30;;;22.30;99.90;;;;;;5029300;28;20545;-72
2023/09/30 10:08:37;;;;;;;8.93;6.13;;;22.40;99.90;;;;;;5019001;28;20570;-73
2023/09/30 10:11:04;;;;;;;8.03;4.70;;;22.70;99.90;;;;;;5026173;28;20459;-73
2023/09/30 10:14:02;;;;;;;10.30;5.47;;;22.80;99.90;;;;;;5015567;28;21321;-73
2023/09/30 10:16:37;;;;;;;12.30;5.33;;;22.90;99.90;;;;;;5000094;28;20423;-73
2023/09/30 10:19:14;;;;;;;12.23;7.67;;;22.90;99.90;;;;;;5017507;28;20431;-73
2023/09/30 10:22:00;;;;;;;10.20;7.27;;;22.80;99.90;;;;;;5019519;28;20486;-73
2023/09/30 10:24:27;;;;;;;12.63;6.27;;;22.90;99.90;;;;;;5006962;28;20499;-73
2023/09/30 10:27:34;;;;;;;8.10;5.57;;;23.00;99.90;;;;;;5018151;28;21201;-71
2023/09/30 10:30:09;;;;;;;12.50;4.80;;;23.00;99.90;;;;;;5020294;28;20520;-73
2023/09/30 10:32:50;;;;;;;9.67;5.20;;;22.90;99.90;;;;;;5018549;28;20482;-73
2023/09/30 10:35:21;;;;;;;9.57;5.30;;;22.80;99.90;;;;;;5022639;28;20430;-74
2023/09/30 10:37:48;;;;;;;7.23;5.30;;;22.80;99.90;;;;;;5021639;28;20493;-73
2023/09/30 10:40:31;;;;;;;8.20;5.53;;;22.80;99.90;;;;;;5017712;28;20506;-74
2023/09/30 10:42:57;;;;;;;9.20;5.33;;;22.80;99.90;;;;;;5029654;28;20445;-73
2023/09/30 10:45:44;;;;;;;8.00;4.90;;;22.90;99.90;;;;;;5032262;28;20438;-74
2023/09/30 10:48:26;;;;;;;8.37;6.07;;;22.80;99.90;;;;;;5017377;28;20459;-73
2023/09/30 10:50:58;;;;;;;11.73;4.67;;;22.80;99.90;;;;;;5023717;28;20454;-73
2023/09/30 10:53:27;;;;;;;8.40;5.47;;;22.80;99.90;;;;;;5018491;28;20407;-73
2023/09/30 10:55:57;;;;;;;9.73;5.40;;;22.90;99.90;;;;;;5018225;28;20987;-73
2023/09/30 10:58:42;;;;;;;8.17;5.40;;;22.90;99.90;;;;;;5002251;28;20431;-73
2023/09/30 11:01:08;;;;;;;9.07;5.37;;;23.00;99.90;;;;;;5020485;28;20423;-73
2023/09/30 11:03:34;;;;;;;10.63;5.73;;;23.00;99.90;;;;;;5016900;28;21485;-73
2023/09/30 11:05:59;;;;;;;6.83;5.00;;;23.10;99.90;;;;;;5025949;28;20263;-73
2023/09/30 11:08:29;;;;;;;9.37;6.27;;;23.20;99.90;;;;;;5019759;28;20239;-73
2023/09/30 11:10:56;;;;;;;8.30;5.40;;;23.40;99.90;;;;;;5008466;28;20172;-74
2023/09/30 11:13:22;;;;;;;8.20;5.17;;;23.60;99.90;;;;;;5032821;28;20551;-75
2023/09/30 11:15:59;;;;;;;12.50;5.40;;;23.70;99.90;;;;;;5020755;28;20490;-74
2023/09/30 11:18:24;;;;;;;7.90;5.00;;;23.70;99.90;;;;;;5018000;28;20422;-73
2023/09/30 11:21:02;;;;;;;10.60;4.60;;;23.90;99.90;;;;;;5014506;28;20945;-74
2023/09/30 11:23:28;;;;;;;6.33;4.90;;;24.00;99.90;;;;;;5002457;28;20207;-73
2023/09/30 11:25:54;;;;;;;8.20;5.50;;;24.20;99.90;;;;;;5038055;28;20950;-73
2023/09/30 11:28:21;;;;;;;6.17;5.30;;;24.40;99.90;;;;;;5023009;28;20729;-74
2023/09/30 11:30:57;;;;;;;6.97;5.10;;;24.60;99.90;;;;;;5006898;28;20430;-73
2023/09/30 11:33:24;;;;;;;8.50;4.70;;;24.80;99.90;;;;;;5021546;28;20968;-73
2023/09/30 11:36:16;;;;;;;9.13;5.30;;;24.90;99.90;;;;;;5015624;28;20504;-73
2023/09/30 11:38:46;;;;;;;12.90;4.73;;;24.80;99.90;;;;;;5022031;28;20447;-72
2023/09/30 11:41:12;;;;;;;7.53;4.80;;;24.70;99.90;;;;;;5022475;28;21025;-73
2023/09/30 11:43:39;;;;;;;9.27;5.20;;;24.70;99.90;;;;;;5016272;28;20522;-73
2023/09/30 11:46:09;;;;;;;9.60;4.70;;;24.60;99.90;;;;;;5024936;28;20223;-73
2023/09/30 11:48:39;;;;;;;9.03;5.83;;;24.60;99.90;;;;;;5022849;28;20470;-73
2023/09/30 11:51:05;;;;;;;8.40;5.17;;;24.90;99.90;;;;;;5022266;28;21125;-72
2023/09/30 11:53:32;;;;;;;11.47;5.97;;;25.60;99.90;;;;;;5018852;28;20435;-75
2023/09/30 11:55:59;;;;;;;6.80;5.27;;;26.60;99.90;;;;;;5021096;28;20204;-72
2023/09/30 11:58:26;;;;;;;7.30;4.53;;;28.20;99.90;;;;;;5004617;28;20464;-73
2023/09/30 12:00:57;;;;;;;8.03;4.60;;;29.60;99.90;;;;;;5020445;28;20458;-73
2023/09/30 12:03:24;;;;;;;5.50;4.50;;;31.20;99.40;;;;;;5015745;28;20467;-74
2023/09/30 12:05:49;;;;;;;7.13;5.30;;;32.70;93.90;;;;;;5020041;28;20539;-73
2023/09/30 12:08:15;;;;;;;7.23;5.40;;;33.90;82.40;;;;;;5027911;28;20455;-73
2023/09/30 12:10:41;;;;;;;6.67;5.50;;;34.40;72.20;;;;;;5022744;28;20216;-73
2023/09/30 12:13:06;;;;;;;7.23;5.50;;;35.20;68.10;;;;;;5022337;28;20287;-72
2023/09/30 12:15:32;;;;;;;7.57;4.90;;;35.20;64.50;;;;;;5016933;28;20211;-72
2023/09/30 12:17:58;;;;;;;8.97;5.63;;;35.70;62.00;;;;;;5022847;28;20184;-74
2023/09/30 12:20:25;;;;;;;9.93;4.90;;;35.40;58.80;;;;;;5003585;28;20188;-74
2023/09/30 12:22:53;;;;;;;5.60;4.60;;;34.50;58.70;;;;;;5003743;28;20849;-73
2023/09/30 12:25:21;;;;;;;8.20;5.30;;;33.60;58.60;;;;;;5021446;28;20868;-72
2023/09/30 12:27:47;;;;;;;7.00;5.23;;;34.00;60.00;;;;;;5028169;28;20394;-73
2023/09/30 12:30:13;;;;;;;6.40;5.30;;;35.30;58.70;;;;;;5023350;28;20435;-74
2023/09/30 12:32:39;;;;;;;9.70;6.30;;;36.70;56.70;;;;;;5020930;28;20438;-72
2023/09/30 12:35:05;;;;;;;7.77;6.23;;;37.10;51.90;;;;;;5023076;28;20249;-72
2023/09/30 12:37:32;;;;;;;10.67;5.20;;;37.70;51.30;;;;;;5021959;28;20390;-72
2023/09/30 12:39:58;;;;;;;5.80;5.03;;;38.20;49.50;;;;;;5026331;28;20191;-73
2023/09/30 12:42:23;;;;;;;8.10;5.90;;;39.10;47.70;;;;;;5021017;28;20902;-73
2023/09/30 12:44:50;;;;;;;7.60;6.63;;;40.00;45.90;;;;;;5020950;28;20462;-72
2023/09/30 12:47:15;;;;;;;7.00;5.67;;;40.20;42.90;;;;;;5019639;28;20707;-72